Time;durP1;ratioP1;P1;durP2;ratioP2;P2;SDS_P1;SDS_P2;PMS_P1;PMS_P2;Temp;Humidity;BMP_temperature;BMP_pressure;BME280_temperature;BME280_humidity;BME280_pressure;Samples;Min_cycle;Max_cycle;Signal;HPM_P1;HPM_P2
2023/08/03 00:00:45;;;;;;;5.00;1.70;;;;;;;;;;4998732;28;20046;-57
2023/08/03 00:03:12;;;;;;;4.32;1.60;;;;;;;;;;4998907;28;20046;-59
2023/08/03 00:05:39;;;;;;;4.57;1.67;;;;;;;;;;4998499;28;20048;-57
2023/08/03 00:08:07;;;;;;;5.20;1.60;;;;;;;;;;4998610;28;20085;-58
2023/08/03 00:10:35;;;;;;;3.88;1.70;;;;;;;;;;4998452;28;20105;-58
2023/08/03 00:13:01;;;;;;;4.57;1.60;;;;;;;;;;5000447;28;20133;-58
2023/08/03 00:15:28;;;;;;;4.82;1.95;;;;;;;;;;5008027;28;20048;-56
2023/08/03 00:17:55;;;;;;;5.28;2.13;;;;;;;;;;5000630;28;20047;-55
2023/08/03 00:20:22;;;;;;;4.70;2.35;;;;;;;;;;4995302;28;20054;-57
2023/08/03 00:22:48;;;;;;;5.43;2.83;;;;;;;;;;4997074;28;20065;-55
2023/08/03 00:25:16;;;;;;;5.13;2.40;;;;;;;;;;5006663;28;20045;-57
2023/08/03 00:27:43;;;;;;;3.85;2.00;;;;;;;;;;5000476;28;20050;-57
2023/08/03 00:30:10;;;;;;;5.03;2.15;;;;;;;;;;4998574;28;20062;-58
2023/08/03 00:32:37;;;;;;;4.05;1.90;;;;;;;;;;5006585;28;20523;-58
2023/08/03 00:35:04;;;;;;;4.15;1.88;;;;;;;;;;4995027;28;20405;-57
2023/08/03 00:37:31;;;;;;;5.22;2.25;;;;;;;;;;4994883;28;20046;-58
2023/08/03 00:39:57;;;;;;;7.10;2.17;;;;;;;;;;4994930;28;20511;-57
2023/08/03 00:42:25;;;;;;;5.05;2.78;;;;;;;;;;5016239;23;20057;-78
2023/08/03 00:44:52;;;;;;;4.20;1.85;;;;;;;;;;5002242;28;20129;-78
2023/08/03 00:47:19;;;;;;;4.97;1.88;;;;;;;;;;4995105;28;20050;-78
2023/08/03 00:49:45;;;;;;;4.65;1.85;;;;;;;;;;5003638;28;20042;-78
2023/08/03 00:52:12;;;;;;;4.85;2.50;;;;;;;;;;4994607;28;20129;-77
2023/08/03 00:54:39;;;;;;;4.60;2.17;;;;;;;;;;4998138;28;20049;-77
2023/08/03 00:57:06;;;;;;;5.20;2.38;;;;;;;;;;4999870;28;20085;-76
2023/08/03 00:59:34;;;;;;;5.97;2.30;;;;;;;;;;4996115;28;20053;-78
2023/08/03 01:02:01;;;;;;;5.85;2.00;;;;;;;;;;4996364;28;20089;-77
2023/08/03 01:04:28;;;;;;;4.28;1.70;;;;;;;;;;4996053;28;20050;-78
2023/08/03 01:06:55;;;;;;;5.65;1.80;;;;;;;;;;4996613;28;20129;-78
2023/08/03 01:09:21;;;;;;;3.63;1.75;;;;;;;;;;4996289;28;20495;-78
2023/08/03 01:11:48;;;;;;;4.28;1.85;;;;;;;;;;5003384;28;20549;-78
2023/08/03 01:14:14;;;;;;;7.38;2.10;;;;;;;;;;4995048;28;20069;-77
2023/08/03 01:16:42;;;;;;;5.35;1.60;;;;;;;;;;4997091;28;20066;-78
2023/08/03 01:19:10;;;;;;;6.05;1.73;;;;;;;;;;4996356;28;20049;-78
2023/08/03 01:21:38;;;;;;;3.75;1.92;;;;;;;;;;4995804;28;20605;-78
2023/08/03 01:24:06;;;;;;;4.45;1.48;;;;;;;;;;4995798;28;20477;-77
2023/08/03 01:26:33;;;;;;;5.68;1.50;;;;;;;;;;5015908;28;20038;-79
2023/08/03 01:28:59;;;;;;;4.22;1.77;;;;;;;;;;4998428;28;20129;-79
2023/08/03 01:31:26;;;;;;;3.60;1.77;;;;;;;;;;4996618;28;20050;-79
2023/08/03 01:33:53;;;;;;;4.65;1.40;;;;;;;;;;4997204;28;20058;-79
2023/08/03 01:36:20;;;;;;;3.50;1.40;;;;;;;;;;4997655;28;20054;-78
2023/08/03 01:38:54;;;;;;;7.28;2.08;;;;;;;;;;4996859;28;20054;-77
2023/08/03 01:41:22;;;;;;;6.35;1.80;;;;;;;;;;4996472;28;20424;-79
2023/08/03 01:44:16;;;;;;;5.90;1.50;;;;;;;;;;4996634;28;20042;-79
2023/08/03 01:46:42;;;;;;;5.07;1.58;;;;;;;;;;4997029;28;20129;-78
2023/08/03 01:49:09;;;;;;;5.25;1.77;;;;;;;;;;4996837;28;20065;-79
2023/08/03 01:51:36;;;;;;;4.72;1.75;;;;;;;;;;4996512;28;20081;-78
2023/08/03 01:54:03;;;;;;;7.25;1.67;;;;;;;;;;4996945;28;20282;-78
2023/08/03 01:56:30;;;;;;;3.78;1.92;;;;;;;;;;4996800;28;20054;-78
2023/08/03 01:58:58;;;;;;;5.35;1.80;;;;;;;;;;4996540;28;20104;-79
2023/08/03 02:01:24;;;;;;;5.82;2.30;;;;;;;;;;4996747;28;20046;-79
2023/08/03 02:03:51;;;;;;;3.90;1.55;;;;;;;;;;4996271;28;20046;-79
2023/08/03 02:06:17;;;;;;;5.68;1.70;;;;;;;;;;4996798;28;20050;-79
2023/08/03 02:08:44;;;;;;;5.47;1.70;;;;;;;;;;4996770;28;20501;-79
2023/08/03 02:11:10;;;;;;;5.10;1.77;;;;;;;;;;4995913;28;20137;-78
2023/08/03 02:13:38;;;;;;;4.15;1.67;;;;;;;;;;4996176;28;20046;-79
2023/08/03 02:16:08;;;;;;;4.53;1.67;;;;;;;;;;4995204;28;20497;-79
2023/08/03 02:18:35;;;;;;;7.18;1.90;;;;;;;;;;4990340;28;20042;-79
2023/08/03 02:21:02;;;;;;;7.00;1.98;;;;;;;;;;4995468;28;20054;-78
2023/08/03 02:23:28;;;;;;;3.22;1.55;;;;;;;;;;4995500;28;20046;-78
2023/08/03 02:25:55;;;;;;;5.72;2.22;;;;;;;;;;4995258;28;20133;-79
2023/08/03 02:28:21;;;;;;;5.35;1.90;;;;;;;;;;4995480;28;20046;-79
2023/08/03 02:30:49;;;;;;;8.77;1.90;;;;;;;;;;4995350;28;20046;-78
2023/08/03 02:33:16;;;;;;;5.55;1.73;;;;;;;;;;4995002;28;20046;-78
2023/08/03 02:35:42;;;;;;;6.55;1.95;;;;;;;;;;4994752;28;20053;-79
2023/08/03 02:38:09;;;;;;;5.57;2.08;;;;;;;;;;4995586;28;20129;-79
2023/08/03 02:40:36;;;;;;;6.72;1.65;;;;;;;;;;4994913;28;20053;-79
2023/08/03 02:43:02;;;;;;;5.72;1.67;;;;;;;;;;4994537;28;20093;-78
2023/08/03 02:45:29;;;;;;;7.20;1.90;;;;;;;;;;4994691;28;20417;-77
2023/08/03 02:47:57;;;;;;;3.75;1.60;;;;;;;;;;4995721;28;20065;-77
2023/08/03 02:50:23;;;;;;;4.72;1.90;;;;;;;;;;4995210;28;20056;-79
2023/08/03 02:52:50;;;;;;;9.48;1.73;;;;;;;;;;4995093;28;20060;-79
2023/08/03 02:55:17;;;;;;;6.72;1.80;;;;;;;;;;4996987;28;20077;-78
2023/08/03 02:57:43;;;;;;;5.03;1.55;;;;;;;;;;4998160;28;20062;-79
2023/08/03 03:00:11;;;;;;;5.88;1.73;;;;;;;;;;4998989;28;20119;-78
2023/08/03 03:02:37;;;;;;;5.43;1.73;;;;;;;;;;4994622;28;20061;-78
2023/08/03 03:05:06;;;;;;;5.32;1.83;;;;;;;;;;4994796;28;20046;-79
2023/08/03 03:07:33;;;;;;;5.53;1.88;;;;;;;;;;4995725;28;20050;-79
2023/08/03 03:09:59;;;;;;;5.93;1.60;;;;;;;;;;4996951;28;20406;-79
2023/08/03 03:12:26;;;;;;;5.13;1.60;;;;;;;;;;4995484;28;20042;-79
2023/08/03 03:14:53;;;;;;;8.55;2.67;;;;;;;;;;4995482;28;20073;-77
2023/08/03 03:17:19;;;;;;;6.13;1.52;;;;;;;;;;4994496;28;20054;-79
2023/08/03 03:19:46;;;;;;;7.18;1.83;;;;;;;;;;4994152;28;20110;-79
2023/08/03 03:22:13;;;;;;;3.38;1.70;;;;;;;;;;4994451;28;20053;-78
2023/08/03 03:44:53;;;;;;;7.72;1.73;;;;;;;;;;4987678;28;20041;-78
2023/08/03 03:47:20;;;;;;;6.10;1.60;;;;;;;;;;4994108;28;20047;-79
2023/08/03 03:49:46;;;;;;;4.57;1.52;;;;;;;;;;4993989;28;20126;-79
2023/08/03 03:52:13;;;;;;;6.38;1.90;;;;;;;;;;4992936;28;20057;-79
2023/08/03 03:54:40;;;;;;;4.35;1.88;;;;;;;;;;4997852;28;20129;-78
2023/08/03 03:57:07;;;;;;;5.35;1.60;;;;;;;;;;4997993;28;20131;-78
2023/08/03 03:59:33;;;;;;;4.20;1.80;;;;;;;;;;4998665;28;20092;-79
2023/08/03 04:02:01;;;;;;;5.65;1.48;;;;;;;;;;4999225;28;20046;-79
2023/08/03 04:04:28;;;;;;;6.38;1.92;;;;;;;;;;4999127;28;20053;-79
2023/08/03 04:06:55;;;;;;;5.32;1.65;;;;;;;;;;4999402;28;20073;-78
2023/08/03 04:09:21;;;;;;;5.40;1.77;;;;;;;;;;4998509;28;20129;-79
2023/08/03 04:11:48;;;;;;;4.82;1.35;;;;;;;;;;4996758;28;20134;-79
2023/08/03 04:14:14;;;;;;;7.15;1.60;;;;;;;;;;4998464;28;20042;-78
2023/08/03 04:16:41;;;;;;;5.60;1.58;;;;;;;;;;4997669;28;20494;-78
2023/08/03 04:19:09;;;;;;;5.45;1.65;;;;;;;;;;4997671;28;20058;-79
2023/08/03 04:21:35;;;;;;;5.70;1.70;;;;;;;;;;4997324;28;20129;-79
2023/08/03 04:24:02;;;;;;;5.13;1.67;;;;;;;;;;4997182;28;20051;-78
2023/08/03 04:26:28;;;;;;;7.90;2.05;;;;;;;;;;4997598;28;20114;-79
2023/08/03 04:28:55;;;;;;;7.15;1.95;;;;;;;;;;4997748;28;20092;-79
2023/08/03 04:31:21;;;;;;;4.43;1.67;;;;;;;;;;4997713;28;20050;-79
2023/08/03 04:33:48;;;;;;;5.10;1.77;;;;;;;;;;4997114;28;20501;-79
2023/08/03 04:36:16;;;;;;;8.35;1.90;;;;;;;;;;4997743;28;20054;-78
2023/08/03 04:38:42;;;;;;;4.80;1.60;;;;;;;;;;4998491;28;20051;-78
2023/08/03 04:41:09;;;;;;;7.53;2.00;;;;;;;;;;4997946;28;20505;-78
2023/08/03 04:43:35;;;;;;;5.80;1.60;;;;;;;;;;4997417;28;20060;-78
2023/08/03 04:46:02;;;;;;;5.35;1.50;;;;;;;;;;4996930;28;20057;-79
2023/08/03 04:48:28;;;;;;;5.20;1.60;;;;;;;;;;4995745;28;20133;-78
2023/08/03 04:50:55;;;;;;;4.88;1.30;;;;;;;;;;4994480;28;20489;-78
2023/08/03 04:53:23;;;;;;;4.15;1.52;;;;;;;;;;4994264;28;20588;-78
2023/08/03 04:55:49;;;;;;;6.22;1.40;;;;;;;;;;4994193;28;20047;-77
2023/08/03 04:58:16;;;;;;;5.68;1.98;;;;;;;;;;4994489;28;20053;-79
2023/08/03 05:00:42;;;;;;;4.45;1.48;;;;;;;;;;4994379;28;20139;-78
2023/08/03 05:03:09;;;;;;;6.20;1.80;;;;;;;;;;4994323;28;20046;-78
2023/08/03 05:05:35;;;;;;;5.47;2.33;;;;;;;;;;4994719;28;20055;-79
2023/08/03 05:08:02;;;;;;;4.60;1.98;;;;;;;;;;4995231;28;20416;-78
2023/08/03 05:10:30;;;;;;;5.97;1.83;;;;;;;;;;4994698;28;20489;-79
2023/08/03 05:12:56;;;;;;;6.35;1.58;;;;;;;;;;4994635;28;20050;-78
2023/08/03 05:15:23;;;;;;;5.38;1.77;;;;;;;;;;4994531;28;20129;-76
2023/08/03 05:17:49;;;;;;;7.07;2.08;;;;;;;;;;4993804;28;20053;-78
2023/08/03 05:20:16;;;;;;;6.10;1.60;;;;;;;;;;4994545;28;20133;-76
2023/08/03 05:22:43;;;;;;;6.30;1.33;;;;;;;;;;4995134;28;20570;-79
2023/08/03 05:25:10;;;;;;;6.05;1.45;;;;;;;;;;4997135;28;20428;-78
2023/08/03 05:27:38;;;;;;;5.75;1.60;;;;;;;;;;4997062;28;20046;-78
2023/08/03 05:30:06;;;;;;;4.38;1.42;;;;;;;;;;4997625;28;20093;-79
2023/08/03 05:32:33;;;;;;;5.70;1.88;;;;;;;;;;4993743;28;20180;-78
2023/08/03 05:34:59;;;;;;;6.65;1.50;;;;;;;;;;4995551;28;20493;-78
2023/08/03 05:37:26;;;;;;;5.35;1.40;;;;;;;;;;4995885;28;20589;-78
2023/08/03 05:39:53;;;;;;;5.68;1.38;;;;;;;;;;4997384;28;20144;-79
2023/08/03 05:42:20;;;;;;;6.70;1.48;;;;;;;;;;4998541;28;20501;-79
2023/08/03 05:44:48;;;;;;;5.65;1.02;;;;;;;;;;4998131;28;20429;-78
2023/08/03 05:47:17;;;;;;;3.58;1.30;;;;;;;;;;4996261;28;20062;-78
2023/08/03 05:49:44;;;;;;;4.53;1.30;;;;;;;;;;4996550;28;20120;-78
2023/08/03 05:52:11;;;;;;;3.28;1.00;;;;;;;;;;4996235;28;20052;-78
2023/08/03 05:54:39;;;;;;;3.95;1.25;;;;;;;;;;4997152;28;20046;-78
2023/08/03 05:57:06;;;;;;;5.93;1.88;;;;;;;;;;4997284;28;20058;-78
2023/08/03 05:59:36;;;;;;;4.28;1.25;;;;;;;;;;4992741;28;20042;-79
2023/08/03 06:02:20;;;;;;;6.07;1.10;;;;;;;;;;4993002;28;20097;-77
2023/08/03 06:04:47;;;;;;;5.57;2.05;;;;;;;;;;4989765;28;20046;-78
2023/08/03 06:07:14;;;;;;;3.42;1.10;;;;;;;;;;4996355;28;20046;-79
2023/08/03 06:09:41;;;;;;;5.63;1.52;;;;;;;;;;4995538;28;20050;-78
2023/08/03 06:12:14;;;;;;;4.40;1.55;;;;;;;;;;4995376;28;20417;-78
2023/08/03 06:14:41;;;;;;;4.22;1.30;;;;;;;;;;4991969;28;20046;-79
2023/08/03 06:17:09;;;;;;;5.68;1.23;;;;;;;;;;4994668;28;20064;-79
2023/08/03 06:19:36;;;;;;;3.28;0.90;;;;;;;;;;4995879;28;20077;-79
2023/08/03 06:22:03;;;;;;;5.30;1.30;;;;;;;;;;4994816;28;20050;-78
2023/08/03 06:24:30;;;;;;;4.40;1.08;;;;;;;;;;4995248;28;20054;-78
2023/08/03 06:26:58;;;;;;;3.90;0.93;;;;;;;;;;4997682;28;20134;-79
2023/08/03 06:29:25;;;;;;;5.53;1.45;;;;;;;;;;4995081;28;20053;-79
2023/08/03 06:31:51;;;;;;;4.30;0.73;;;;;;;;;;5009267;28;20050;-78
2023/08/03 06:34:19;;;;;;;3.60;0.80;;;;;;;;;;5005626;28;20050;-78
2023/08/03 06:36:46;;;;;;;4.93;0.95;;;;;;;;;;4988208;28;20046;-78
2023/08/03 06:39:12;;;;;;;4.80;1.05;;;;;;;;;;4993274;28;20121;-79
2023/08/03 06:41:39;;;;;;;3.95;0.82;;;;;;;;;;4993971;28;20489;-78
2023/08/03 06:44:06;;;;;;;2.72;0.70;;;;;;;;;;4995359;28;20050;-78
2023/08/03 06:46:32;;;;;;;3.45;0.77;;;;;;;;;;4995060;28;20089;-78
2023/08/03 06:48:59;;;;;;;2.78;0.70;;;;;;;;;;4994666;28;20049;-78
2023/08/03 06:51:27;;;;;;;3.60;0.90;;;;;;;;;;4993559;28;20051;-78
2023/08/03 06:53:54;;;;;;;4.25;1.17;;;;;;;;;;4992072;28;20046;-78
2023/08/03 06:56:20;;;;;;;3.30;0.70;;;;;;;;;;4994077;28;20050;-77
2023/08/03 06:58:47;;;;;;;4.07;0.95;;;;;;;;;;4995451;28;20133;-78
2023/08/03 07:01:13;;;;;;;2.85;1.00;;;;;;;;;;4994566;28;20050;-78
2023/08/03 07:03:40;;;;;;;4.57;1.38;;;;;;;;;;4994568;28;20133;-78
2023/08/03 07:06:07;;;;;;;2.67;0.68;;;;;;;;;;4989936;28;20117;-78
2023/08/03 07:08:34;;;;;;;4.03;0.73;;;;;;;;;;4986127;28;20056;-79
2023/08/03 07:11:01;;;;;;;4.82;0.90;;;;;;;;;;4984749;28;20042;-78
2023/08/03 07:13:28;;;;;;;4.32;0.80;;;;;;;;;;4987680;28;20057;-79
2023/08/03 07:15:54;;;;;;;3.05;0.68;;;;;;;;;;4988775;28;20046;-79
2023/08/03 07:18:21;;;;;;;5.03;0.80;;;;;;;;;;4989594;28;20046;-78
2023/08/03 07:20:47;;;;;;;3.10;0.93;;;;;;;;;;4991351;28;20043;-78
2023/08/03 07:23:14;;;;;;;2.78;0.70;;;;;;;;;;4994554;28;20138;-79
2023/08/03 07:25:42;;;;;;;3.88;0.70;;;;;;;;;;4989010;28;20057;-78
2023/08/03 07:28:08;;;;;;;4.50;1.00;;;;;;;;;;4989301;28;20069;-79
2023/08/03 07:30:36;;;;;;;3.92;0.70;;;;;;;;;;4997396;28;20500;-79
2023/08/03 07:33:02;;;;;;;3.30;0.70;;;;;;;;;;4997897;28;20046;-78
2023/08/03 07:35:29;;;;;;;3.80;0.70;;;;;;;;;;4995904;28;20117;-81
2023/08/03 07:37:55;;;;;;;3.33;0.80;;;;;;;;;;5000767;28;20077;-79
2023/08/03 07:40:22;;;;;;;3.58;0.70;;;;;;;;;;4994792;28;20505;-82
2023/08/03 07:42:50;;;;;;;3.72;0.60;;;;;;;;;;4996630;28;20046;-79
2023/08/03 07:45:17;;;;;;;2.17;0.65;;;;;;;;;;4996616;28;20136;-79
2023/08/03 07:47:44;;;;;;;4.47;2.22;;;;;;;;;;4996499;28;20042;-80
2023/08/03 07:50:11;;;;;;;3.58;0.95;;;;;;;;;;4997438;28;20086;-80
2023/08/03 07:52:38;;;;;;;4.10;0.80;;;;;;;;;;4996537;28;20046;-80
2023/08/03 07:55:06;;;;;;;2.60;0.60;;;;;;;;;;4997252;28;20069;-80
2023/08/03 07:57:33;;;;;;;5.53;0.70;;;;;;;;;;4993607;28;20043;-79
2023/08/03 08:00:03;;;;;;;3.35;0.88;;;;;;;;;;5001145;28;20115;-79
2023/08/03 08:02:30;;;;;;;2.70;0.65;;;;;;;;;;4994816;28;20223;-79
2023/08/03 08:04:56;;;;;;;2.80;0.65;;;;;;;;;;4995472;28;20217;-80
2023/08/03 08:07:23;;;;;;;4.72;0.60;;;;;;;;;;4994976;28;20073;-80
2023/08/03 08:09:53;;;;;;;2.92;0.70;;;;;;;;;;5000729;28;20041;-79
2023/08/03 08:12:19;;;;;;;5.40;1.50;;;;;;;;;;4999003;28;20394;-79
2023/08/03 08:14:46;;;;;;;3.50;1.17;;;;;;;;;;4996706;28;20493;-79
2023/08/03 08:17:13;;;;;;;2.80;0.90;;;;;;;;;;4993168;28;20065;-78
2023/08/03 08:19:40;;;;;;;3.42;0.95;;;;;;;;;;4995080;28;20520;-79
2023/08/03 08:22:08;;;;;;;3.10;1.05;;;;;;;;;;4994223;28;20082;-79
2023/08/03 08:24:35;;;;;;;3.38;0.73;;;;;;;;;;4995102;28;20529;-79
2023/08/03 08:27:02;;;;;;;1.85;0.50;;;;;;;;;;4993936;28;20054;-79
2023/08/03 08:29:28;;;;;;;3.08;0.75;;;;;;;;;;4993383;28;20141;-79
2023/08/03 08:31:55;;;;;;;4.25;1.00;;;;;;;;;;4992435;28;20050;-80
2023/08/03 08:34:23;;;;;;;3.05;0.90;;;;;;;;;;4997990;28;20054;-80
2023/08/03 08:36:51;;;;;;;3.17;0.88;;;;;;;;;;4998211;28;20508;-78
2023/08/03 08:39:18;;;;;;;2.88;0.77;;;;;;;;;;4996988;28;20225;-79
2023/08/03 08:41:44;;;;;;;4.28;0.73;;;;;;;;;;4996049;28;20137;-80
2023/08/03 08:44:13;;;;;;;3.35;0.85;;;;;;;;;;4995242;28;20046;-79
2023/08/03 08:46:42;;;;;;;2.85;0.95;;;;;;;;;;4996461;28;20050;-79
2023/08/03 08:49:08;;;;;;;4.22;0.90;;;;;;;;;;4995206;28;20049;-79
2023/08/03 08:51:37;;;;;;;3.72;1.20;;;;;;;;;;4995141;28;20046;-79
2023/08/03 08:54:04;;;;;;;4.30;1.30;;;;;;;;;;4996199;28;20429;-79
2023/08/03 08:56:30;;;;;;;2.25;0.80;;;;;;;;;;4997227;28;20101;-79
2023/08/03 08:58:57;;;;;;;3.00;1.00;;;;;;;;;;4996448;28;20060;-79
2023/08/03 09:01:24;;;;;;;2.55;0.80;;;;;;;;;;4996447;28;20050;-79
2023/08/03 09:03:52;;;;;;;2.83;1.00;;;;;;;;;;4996297;28;20057;-78
2023/08/03 09:06:20;;;;;;;5.28;0.77;;;;;;;;;;4996701;28;20050;-79
2023/08/03 09:08:54;;;;;;;2.10;0.80;;;;;;;;;;4994142;28;20046;-79
2023/08/03 09:11:36;;;;;;;3.17;0.80;;;;;;;;;;4993807;28;20070;-77
2023/08/03 09:14:05;;;;;;;4.72;1.00;;;;;;;;;;4993196;28;20060;-79
2023/08/03 09:16:31;;;;;;;3.17;0.82;;;;;;;;;;4993845;28;20137;-80
2023/08/03 09:18:58;;;;;;;5.28;1.17;;;;;;;;;;4994987;28;20050;-80
2023/08/03 09:21:25;;;;;;;4.10;1.35;;;;;;;;;;4993988;28;20043;-79
2023/08/03 09:23:54;;;;;;;2.85;0.82;;;;;;;;;;4991700;28;20101;-79
2023/08/03 09:26:22;;;;;;;2.78;0.85;;;;;;;;;;4995201;28;20042;-79
2023/08/03 09:28:49;;;;;;;3.83;1.00;;;;;;;;;;4994656;28;20047;-80
2023/08/03 09:31:22;;;;;;;3.10;0.98;;;;;;;;;;4993705;28;20045;-79
2023/08/03 09:33:55;;;;;;;5.40;1.00;;;;;;;;;;4995210;28;20047;-79
2023/08/03 09:36:22;;;;;;;2.42;0.70;;;;;;;;;;4996132;28;20038;-80
2023/08/03 09:38:48;;;;;;;3.22;0.90;;;;;;;;;;4994751;28;20053;-78
2023/08/03 09:41:32;;;;;;;5.25;1.40;;;;;;;;;;4996361;28;20153;-79
2023/08/03 09:43:59;;;;;;;9.80;1.25;;;;;;;;;;4993230;28;20555;-80
2023/08/03 09:46:28;;;;;;;2.30;0.88;;;;;;;;;;4995603;28;20046;-78
2023/08/03 09:48:56;;;;;;;3.53;0.90;;;;;;;;;;4995474;28;20493;-79
2023/08/03 09:51:27;;;;;;;3.38;0.68;;;;;;;;;;4993474;28;20126;-80
2023/08/03 09:53:59;;;;;;;4.20;0.75;;;;;;;;;;4991174;28;20061;-79
2023/08/03 09:56:31;;;;;;;2.17;0.70;;;;;;;;;;4996050;28;20042;-80
2023/08/03 09:59:03;;;;;;;2.65;0.77;;;;;;;;;;4994961;28;20058;-80
2023/08/03 10:01:33;;;;;;;3.05;0.85;;;;;;;;;;4995254;28;20141;-80
2023/08/03 10:04:04;;;;;;;3.67;1.13;;;;;;;;;;4995112;28;20042;-79
2023/08/03 10:06:34;;;;;;;2.00;0.68;;;;;;;;;;4995742;28;20073;-79
2023/08/03 10:09:04;;;;;;;4.28;0.80;;;;;;;;;;4994528;28;20046;-80
2023/08/03 10:11:36;;;;;;;2.70;0.90;;;;;;;;;;4995278;28;20050;-80
2023/08/03 10:14:05;;;;;;;3.13;0.95;;;;;;;;;;4995511;28;20068;-80
2023/08/03 10:16:33;;;;;;;2.38;0.90;;;;;;;;;;4995483;28;20141;-79
2023/08/03 10:19:00;;;;;;;3.38;1.20;;;;;;;;;;4996416;28;20061;-79
2023/08/03 10:21:28;;;;;;;2.28;0.82;;;;;;;;;;4994014;28;20481;-77
2023/08/03 10:24:11;;;;;;;2.58;0.75;;;;;;;;;;4994388;28;20054;-78
2023/08/03 10:26:39;;;;;;;2.85;0.73;;;;;;;;;;4993414;28;20588;-79
2023/08/03 10:29:06;;;;;;;2.70;0.90;;;;;;;;;;4996166;28;20113;-80
2023/08/03 10:31:33;;;;;;;3.40;0.90;;;;;;;;;;4987366;28;20049;-79
2023/08/03 10:34:08;;;;;;;2.55;1.00;;;;;;;;;;4991887;28;20501;-79
2023/08/03 10:36:48;;;;;;;2.78;0.90;;;;;;;;;;4994472;28;20128;-79
2023/08/03 10:39:18;;;;;;;2.70;0.95;;;;;;;;;;4993288;28;20054;-81
2023/08/03 10:41:49;;;;;;;2.20;0.60;;;;;;;;;;4991165;28;20486;-77
2023/08/03 10:44:28;;;;;;;2.70;0.85;;;;;;;;;;4992347;28;20074;-79
2023/08/03 10:46:57;;;;;;;2.28;1.10;;;;;;;;;;4989945;28;20050;-80
2023/08/03 10:49:50;;;;;;;2.08;0.80;;;;;;;;;;4992868;28;20054;-79
2023/08/03 10:52:20;;;;;;;1.67;0.60;;;;;;;;;;4992655;28;20058;-78
2023/08/03 10:54:47;;;;;;;1.90;0.70;;;;;;;;;;4994831;28;20146;-79
2023/08/03 10:57:18;;;;;;;2.97;0.60;;;;;;;;;;4993993;28;20529;-80
2023/08/03 10:59:46;;;;;;;2.35;0.70;;;;;;;;;;4993601;28;20432;-78
2023/08/03 11:02:14;;;;;;;2.90;0.70;;;;;;;;;;4992703;28;20557;-78
2023/08/03 11:04:42;;;;;;;1.65;0.80;;;;;;;;;;4994063;28;20046;-79
2023/08/03 11:07:09;;;;;;;2.65;0.68;;;;;;;;;;4992863;28;20062;-79
2023/08/03 11:09:36;;;;;;;2.13;0.65;;;;;;;;;;4995464;28;20052;-78
2023/08/03 11:12:04;;;;;;;1.83;0.65;;;;;;;;;;4994616;28;20420;-80
2023/08/03 11:14:32;;;;;;;3.03;0.60;;;;;;;;;;4993989;28;20081;-77
2023/08/03 11:16:59;;;;;;;1.85;0.60;;;;;;;;;;4989879;28;20055;-79
2023/08/03 11:19:32;;;;;;;1.60;0.40;;;;;;;;;;4994120;28;20054;-80
2023/08/03 11:21:58;;;;;;;2.75;0.60;;;;;;;;;;4994219;28;20051;-80
2023/08/03 11:24:25;;;;;;;2.80;0.52;;;;;;;;;;4994148;28;20129;-80
2023/08/03 11:26:52;;;;;;;1.20;0.35;;;;;;;;;;4994972;28;20050;-79
2023/08/03 11:29:18;;;;;;;3.47;0.57;;;;;;;;;;4993633;28;20050;-79
2023/08/03 11:31:46;;;;;;;2.80;0.65;;;;;;;;;;4994916;28;20554;-78
2023/08/03 11:34:13;;;;;;;1.52;0.47;;;;;;;;;;4992061;28;20061;-78
2023/08/03 11:36:39;;;;;;;2.50;1.35;;;;;;;;;;4997869;28;20077;-79
2023/08/03 11:39:06;;;;;;;2.08;0.52;;;;;;;;;;4993733;28;20042;-79
2023/08/03 11:41:33;;;;;;;1.35;0.40;;;;;;;;;;4992450;28;20046;-79
2023/08/03 11:44:00;;;;;;;2.38;0.60;;;;;;;;;;4993228;28;20046;-78
2023/08/03 11:46:27;;;;;;;2.78;0.90;;;;;;;;;;4994345;28;20057;-78
2023/08/03 11:48:57;;;;;;;1.92;0.60;;;;;;;;;;4994365;28;20137;-79
2023/08/03 11:51:31;;;;;;;2.33;0.50;;;;;;;;;;4992602;28;20106;-78
2023/08/03 11:54:01;;;;;;;2.75;0.55;;;;;;;;;;4990346;28;20065;-78
2023/08/03 11:56:28;;;;;;;3.30;0.90;;;;;;;;;;4992047;28;20088;-78
2023/08/03 11:58:56;;;;;;;1.98;0.45;;;;;;;;;;4990647;28;20414;-79
2023/08/03 12:01:26;;;;;;;3.53;0.70;;;;;;;;;;4992804;28;20058;-79
2023/08/03 12:04:06;;;;;;;2.00;0.65;;;;;;;;;;4993131;28;20049;-79
2023/08/03 12:06:46;;;;;;;3.17;1.00;;;;;;;;;;4995753;28;20050;-81
2023/08/03 12:09:21;;;;;;;2.97;0.80;;;;;;;;;;4994474;28;20064;-79
2023/08/03 12:11:47;;;;;;;2.13;0.55;;;;;;;;;;4992515;28;20125;-77
2023/08/03 12:14:15;;;;;;;3.10;1.05;;;;;;;;;;4986140;28;20054;-81
2023/08/03 12:16:41;;;;;;;3.45;0.73;;;;;;;;;;4992950;28;20141;-82
2023/08/03 12:19:09;;;;;;;3.20;1.38;;;;;;;;;;4994594;28;20121;-82
2023/08/03 12:21:37;;;;;;;1.38;0.70;;;;;;;;;;4990588;28;20065;-79
2023/08/03 12:24:04;;;;;;;2.17;0.60;;;;;;;;;;4991923;28;20046;-80
2023/08/03 12:26:31;;;;;;;1.70;0.52;;;;;;;;;;4993149;28;20088;-80
2023/08/03 12:28:57;;;;;;;1.58;0.50;;;;;;;;;;4993952;28;20058;-79
2023/08/03 12:31:24;;;;;;;3.28;0.90;;;;;;;;;;4994218;28;20046;-80
2023/08/03 12:33:51;;;;;;;2.78;0.70;;;;;;;;;;4994086;28;20427;-80
2023/08/03 12:36:19;;;;;;;0.93;0.50;;;;;;;;;;4995317;28;20530;-80
2023/08/03 12:38:45;;;;;;;2.47;0.57;;;;;;;;;;4994316;28;20101;-79
2023/08/03 12:41:12;;;;;;;2.95;1.02;;;;;;;;;;4996725;28;20141;-80
2023/08/03 12:43:39;;;;;;;5.63;1.98;;;;;;;;;;4994927;28;20553;-80
2023/08/03 12:46:05;;;;;;;3.13;0.90;;;;;;;;;;5018521;22;20511;-77
2023/08/03 12:48:32;;;;;;;2.30;0.90;;;;;;;;;;5004155;28;20038;-75
2023/08/03 12:50:59;;;;;;;1.30;0.50;;;;;;;;;;5006068;28;20092;-76
2023/08/03 12:53:27;;;;;;;2.53;0.70;;;;;;;;;;5011028;28;20054;-75
2023/08/03 12:55:54;;;;;;;1.92;0.60;;;;;;;;;;5006371;28;20050;-74
2023/08/03 12:58:20;;;;;;;1.65;0.60;;;;;;;;;;5005923;28;20042;-75
2023/08/03 13:00:48;;;;;;;1.98;0.50;;;;;;;;;;5010392;28;20046;-75
2023/08/03 13:03:14;;;;;;;2.25;0.77;;;;;;;;;;5008967;28;20515;-75
2023/08/03 13:05:41;;;;;;;2.63;0.50;;;;;;;;;;5009959;28;20464;-76
2023/08/03 13:08:07;;;;;;;2.28;0.70;;;;;;;;;;5007242;28;20046;-76
2023/08/03 13:10:35;;;;;;;2.30;0.95;;;;;;;;;;5009689;28;20044;-76
2023/08/03 13:13:02;;;;;;;1.67;0.68;;;;;;;;;;5009415;28;20630;-76
2023/08/03 13:15:29;;;;;;;3.30;0.80;;;;;;;;;;5007546;28;20069;-76
2023/08/03 13:17:55;;;;;;;3.40;0.80;;;;;;;;;;5009680;28;20409;-76
2023/08/03 13:20:22;;;;;;;2.40;0.70;;;;;;;;;;5005327;28;20054;-76
2023/08/03 13:22:48;;;;;;;0.77;0.50;;;;;;;;;;5007723;28;20385;-77
2023/08/03 13:25:15;;;;;;;1.80;0.60;;;;;;;;;;5006120;28;20054;-76
2023/08/03 13:27:43;;;;;;;2.53;0.68;;;;;;;;;;5006777;28;20042;-76
2023/08/03 13:30:10;;;;;;;2.55;0.70;;;;;;;;;;5006720;28;20042;-76
2023/08/03 13:32:41;;;;;;;1.60;0.68;;;;;;;;;;5004286;28;20078;-76
2023/08/03 13:35:08;;;;;;;1.58;0.47;;;;;;;;;;5004613;28;20511;-76
2023/08/03 13:37:34;;;;;;;1.65;0.60;;;;;;;;;;5005990;28;20046;-75
2023/08/03 13:40:02;;;;;;;1.40;0.55;;;;;;;;;;5004418;28;20144;-75
2023/08/03 13:42:29;;;;;;;2.53;0.77;;;;;;;;;;5007517;28;20077;-76
2023/08/03 13:44:57;;;;;;;1.73;0.50;;;;;;;;;;5009752;28;20547;-76
2023/08/03 13:47:24;;;;;;;2.78;0.70;;;;;;;;;;5006390;28;20068;-76
2023/08/03 13:49:50;;;;;;;2.03;0.50;;;;;;;;;;5010338;28;20057;-76
2023/08/03 13:52:17;;;;;;;1.75;0.63;;;;;;;;;;5007958;28;20050;-76
2023/08/03 13:54:43;;;;;;;2.42;0.70;;;;;;;;;;5006890;28;20125;-75
2023/08/03 13:57:10;;;;;;;3.55;1.35;;;;;;;;;;5006672;28;20049;-75
2023/08/03 13:59:37;;;;;;;1.30;0.60;;;;;;;;;;5007837;28;20096;-76
2023/08/03 14:02:06;;;;;;;1.27;0.47;;;;;;;;;;5007677;28;20060;-75
2023/08/03 14:04:33;;;;;;;1.75;0.63;;;;;;;;;;5006977;28;20061;-75
2023/08/03 14:07:00;;;;;;;2.05;0.57;;;;;;;;;;5005354;28;20065;-77
2023/08/03 14:09:27;;;;;;;2.25;0.50;;;;;;;;;;5009972;28;20501;-77
2023/08/03 14:11:54;;;;;;;2.15;0.55;;;;;;;;;;5009160;28;20041;-76
2023/08/03 14:14:20;;;;;;;1.63;0.52;;;;;;;;;;5009564;28;20053;-76
2023/08/03 14:16:48;;;;;;;1.48;0.50;;;;;;;;;;5009804;28;20046;-75
2023/08/03 14:19:16;;;;;;;1.85;0.50;;;;;;;;;;5010564;28;20045;-76
2023/08/03 14:21:44;;;;;;;0.98;0.57;;;;;;;;;;5008205;28;21881;-76
2023/08/03 14:24:11;;;;;;;2.58;0.50;;;;;;;;;;5009164;28;20483;-76
2023/08/03 14:26:40;;;;;;;2.60;0.50;;;;;;;;;;5007128;28;20069;-76
2023/08/03 14:29:07;;;;;;;2.70;0.70;;;;;;;;;;5005929;28;20052;-75
2023/08/03 14:31:33;;;;;;;1.55;0.45;;;;;;;;;;5009054;28;20042;-76
2023/08/03 14:34:00;;;;;;;2.22;0.55;;;;;;;;;;5009153;28;20057;-76
2023/08/03 14:36:28;;;;;;;2.25;0.60;;;;;;;;;;5008730;28;20056;-76
2023/08/03 14:38:55;;;;;;;1.70;0.60;;;;;;;;;;5009353;28;20054;-76
2023/08/03 14:41:25;;;;;;;2.25;0.60;;;;;;;;;;5003613;28;20453;-76
2023/08/03 14:43:52;;;;;;;1.10;0.50;;;;;;;;;;5003312;28;20372;-75
2023/08/03 14:46:20;;;;;;;3.08;0.98;;;;;;;;;;5006790;28;20056;-75
2023/08/03 14:48:46;;;;;;;1.73;0.50;;;;;;;;;;5008009;28;20052;-76
2023/08/03 14:51:19;;;;;;;2.78;0.70;;;;;;;;;;5001637;28;20472;-79
2023/08/03 14:53:47;;;;;;;1.30;0.43;;;;;;;;;;5003253;28;20073;-77
2023/08/03 14:56:14;;;;;;;1.38;0.47;;;;;;;;;;5007215;28;20053;-76
2023/08/03 14:58:40;;;;;;;3.88;0.80;;;;;;;;;;5001249;28;20053;-76
2023/08/03 15:01:08;;;;;;;2.03;0.70;;;;;;;;;;5004982;28;20137;-75
2023/08/03 15:03:35;;;;;;;1.05;0.50;;;;;;;;;;5008033;28;20039;-77
2023/08/03 15:06:11;;;;;;;2.42;0.60;;;;;;;;;;5012915;28;20471;-76